sensor_id;sensor_type;location;lat;lon;timestamp;P1;durP1;ratioP1;P2;durP2;ratioP2
5987;SDS011;3021;51.000;6.980;2023-02-26T00:00:36;6.82;;;2.90;;
5987;SDS011;3021;51.000;6.980;2023-02-26T00:03:01;5.97;;;2.70;;
5987;SDS011;3021;51.000;6.980;2023-02-26T00:05:27;11.38;;;3.70;;
5987;SDS011;3021;51.000;6.980;2023-02-26T00:07:52;9.38;;;3.30;;
5987;SDS011;3021;51.000;6.980;2023-02-26T00:10:18;7.95;;;2.53;;
5987;SDS011;3021;51.000;6.980;2023-02-26T00:12:44;8.38;;;2.63;;
5987;SDS011;3021;51.000;6.980;2023-02-26T00:15:10;8.68;;;2.45;;
5987;SDS011;3021;51.000;6.980;2023-02-26T00:20:22;5.82;;;3.08;;
5987;SDS011;3021;51.000;6.980;2023-02-26T00:22:47;8.60;;;2.38;;
5987;SDS011;3021;51.000;6.980;2023-02-26T00:25:13;7.22;;;2.83;;
5987;SDS011;3021;51.000;6.980;2023-02-26T00:27:38;9.45;;;2.67;;
5987;SDS011;3021;51.000;6.980;2023-02-26T00:30:04;7.90;;;2.72;;
5987;SDS011;3021;51.000;6.980;2023-02-26T00:32:32;8.07;;;2.45;;
5987;SDS011;3021;51.000;6.980;2023-02-26T00:34:58;6.82;;;2.33;;
5987;SDS011;3021;51.000;6.980;2023-02-26T00:42:42;9.77;;;2.80;;
5987;SDS011;3021;51.000;6.980;2023-02-26T00:45:08;10.35;;;2.40;;
5987;SDS011;3021;51.000;6.980;2023-02-26T00:53:26;9.18;;;2.60;;
5987;SDS011;3021;51.000;6.980;2023-02-26T00:55:30;7.57;;;2.15;;
5987;SDS011;3021;51.000;6.980;2023-02-26T00:57:55;11.38;;;2.53;;
5987;SDS011;3021;51.000;6.980;2023-02-26T01:00:21;9.68;;;2.55;;
5987;SDS011;3021;51.000;6.980;2023-02-26T01:02:47;6.60;;;2.20;;
5987;SDS011;3021;51.000;6.980;2023-02-26T01:05:13;3.45;;;1.90;;
5987;SDS011;3021;51.000;6.980;2023-02-26T01:07:41;9.95;;;2.55;;
5987;SDS011;3021;51.000;6.980;2023-02-26T01:10:11;5.70;;;2.20;;
5987;SDS011;3021;51.000;6.980;2023-02-26T01:12:38;11.18;;;2.20;;
5987;SDS011;3021;51.000;6.980;2023-02-26T01:15:04;7.75;;;2.25;;
5987;SDS011;3021;51.000;6.980;2023-02-26T01:25:16;5.15;;;1.90;;
5987;SDS011;3021;51.000;6.980;2023-02-26T01:27:45;6.53;;;2.42;;
5987;SDS011;3021;51.000;6.980;2023-02-26T01:30:11;7.30;;;2.47;;
5987;SDS011;3021;51.000;6.980;2023-02-26T01:35:48;10.80;;;2.50;;
5987;SDS011;3021;51.000;6.980;2023-02-26T01:38:25;6.28;;;2.33;;
5987;SDS011;3021;51.000;6.980;2023-02-26T01:41:06;10.82;;;2.80;;
5987;SDS011;3021;51.000;6.980;2023-02-26T01:46:32;8.30;;;2.20;;
5987;SDS011;3021;51.000;6.980;2023-02-26T01:49:00;7.90;;;2.90;;
5987;SDS011;3021;51.000;6.980;2023-02-26T01:51:39;4.60;;;2.58;;
5987;SDS011;3021;51.000;6.980;2023-02-26T01:54:05;11.90;;;2.33;;
5987;SDS011;3021;51.000;6.980;2023-02-26T01:56:30;8.65;;;2.50;;
5987;SDS011;3021;51.000;6.980;2023-02-26T01:58:56;7.00;;;2.10;;
5987;SDS011;3021;51.000;6.980;2023-02-26T02:01:22;6.72;;;2.10;;
5987;SDS011;3021;51.000;6.980;2023-02-26T02:03:48;7.22;;;2.45;;
5987;SDS011;3021;51.000;6.980;2023-02-26T02:06:17;9.68;;;2.72;;
5987;SDS011;3021;51.000;6.980;2023-02-26T02:08:45;8.93;;;2.20;;
5987;SDS011;3021;51.000;6.980;2023-02-26T02:11:11;4.20;;;2.20;;
5987;SDS011;3021;51.000;6.980;2023-02-26T02:13:49;6.30;;;2.85;;
5987;SDS011;3021;51.000;6.980;2023-02-26T02:21:51;9.02;;;2.65;;
5987;SDS011;3021;51.000;6.980;2023-02-26T02:27:18;7.65;;;2.30;;
5987;SDS011;3021;51.000;6.980;2023-02-26T02:32:50;5.90;;;2.03;;
5987;SDS011;3021;51.000;6.980;2023-02-26T02:35:29;4.80;;;2.00;;
5987;SDS011;3021;51.000;6.980;2023-02-26T02:38:08;6.25;;;2.13;;
5987;SDS011;3021;51.000;6.980;2023-02-26T02:43:09;6.50;;;2.35;;
5987;SDS011;3021;51.000;6.980;2023-02-26T02:45:48;4.30;;;1.80;;
5987;SDS011;3021;51.000;6.980;2023-02-26T02:50:51;9.40;;;1.95;;
5987;SDS011;3021;51.000;6.980;2023-02-26T02:58:54;7.70;;;2.30;;
5987;SDS011;3021;51.000;6.980;2023-02-26T03:01:27;7.28;;;2.13;;
5987;SDS011;3021;51.000;6.980;2023-02-26T03:04:00;8.70;;;2.10;;
5987;SDS011;3021;51.000;6.980;2023-02-26T03:06:31;5.28;;;2.10;;
5987;SDS011;3021;51.000;6.980;2023-02-26T03:08:56;7.03;;;1.83;;
5987;SDS011;3021;51.000;6.980;2023-02-26T03:11:23;7.65;;;2.40;;
5987;SDS011;3021;51.000;6.980;2023-02-26T03:13:49;8.35;;;2.05;;
5987;SDS011;3021;51.000;6.980;2023-02-26T03:21:36;7.65;;;3.42;;
5987;SDS011;3021;51.000;6.980;2023-02-26T03:32:28;4.95;;;2.22;;
5987;SDS011;3021;51.000;6.980;2023-02-26T03:35:02;3.88;;;1.70;;
5987;SDS011;3021;51.000;6.980;2023-02-26T03:37:39;10.10;;;2.08;;
5987;SDS011;3021;51.000;6.980;2023-02-26T03:40:14;4.18;;;1.83;;
5987;SDS011;3021;51.000;6.980;2023-02-26T03:42:48;6.45;;;1.70;;
5987;SDS011;3021;51.000;6.980;2023-02-26T03:45:20;7.95;;;1.83;;
5987;SDS011;3021;51.000;6.980;2023-02-26T03:47:51;7.93;;;2.00;;
5987;SDS011;3021;51.000;6.980;2023-02-26T03:50:26;4.10;;;1.80;;
5987;SDS011;3021;51.000;6.980;2023-02-26T03:55:32;6.57;;;1.90;;
5987;SDS011;3021;51.000;6.980;2023-02-26T03:58:02;6.75;;;2.30;;
5987;SDS011;3021;51.000;6.980;2023-02-26T04:00:28;2.85;;;1.67;;
5987;SDS011;3021;51.000;6.980;2023-02-26T04:03:01;4.53;;;1.60;;
5987;SDS011;3021;51.000;6.980;2023-02-26T04:05:34;5.18;;;1.90;;
5987;SDS011;3021;51.000;6.980;2023-02-26T04:08:01;5.75;;;1.75;;
5987;SDS011;3021;51.000;6.980;2023-02-26T04:13:23;5.00;;;1.63;;
5987;SDS011;3021;51.000;6.980;2023-02-26T04:15:49;5.55;;;1.50;;
5987;SDS011;3021;51.000;6.980;2023-02-26T04:18:15;4.20;;;1.90;;
5987;SDS011;3021;51.000;6.980;2023-02-26T04:20:40;3.38;;;1.50;;
5987;SDS011;3021;51.000;6.980;2023-02-26T04:23:06;5.60;;;1.85;;
5987;SDS011;3021;51.000;6.980;2023-02-26T04:25:31;3.38;;;1.65;;
5987;SDS011;3021;51.000;6.980;2023-02-26T04:27:57;8.40;;;2.00;;
5987;SDS011;3021;51.000;6.980;2023-02-26T04:30:22;6.93;;;1.90;;
5987;SDS011;3021;51.000;6.980;2023-02-26T04:32:47;4.72;;;2.28;;
5987;SDS011;3021;51.000;6.980;2023-02-26T04:35:13;3.15;;;1.33;;
5987;SDS011;3021;51.000;6.980;2023-02-26T04:37:38;5.65;;;2.00;;
5987;SDS011;3021;51.000;6.980;2023-02-26T04:40:04;10.88;;;2.20;;
5987;SDS011;3021;51.000;6.980;2023-02-26T04:42:30;4.15;;;1.92;;
5987;SDS011;3021;51.000;6.980;2023-02-26T04:44:55;6.03;;;2.13;;
5987;SDS011;3021;51.000;6.980;2023-02-26T04:47:20;6.68;;;2.58;;
5987;SDS011;3021;51.000;6.980;2023-02-26T04:49:46;8.73;;;2.72;;
5987;SDS011;3021;51.000;6.980;2023-02-26T04:52:11;9.20;;;3.35;;
5987;SDS011;3021;51.000;6.980;2023-02-26T04:54:37;10.77;;;3.95;;
5987;SDS011;3021;51.000;6.980;2023-02-26T04:57:02;10.30;;;3.58;;
5987;SDS011;3021;51.000;6.980;2023-02-26T04:59:28;11.52;;;3.65;;
5987;SDS011;3021;51.000;6.980;2023-02-26T05:01:53;8.73;;;3.58;;
5987;SDS011;3021;51.000;6.980;2023-02-26T05:04:19;8.02;;;3.55;;
5987;SDS011;3021;51.000;6.980;2023-02-26T05:06:44;12.00;;;5.05;;
5987;SDS011;3021;51.000;6.980;2023-02-26T05:09:09;13.55;;;4.28;;
5987;SDS011;3021;51.000;6.980;2023-02-26T05:11:35;5.90;;;2.88;;
5987;SDS011;3021;51.000;6.980;2023-02-26T05:14:00;10.07;;;3.00;;
5987;SDS011;3021;51.000;6.980;2023-02-26T05:16:25;9.68;;;3.50;;
5987;SDS011;3021;51.000;6.980;2023-02-26T05:18:51;10.68;;;4.00;;
5987;SDS011;3021;51.000;6.980;2023-02-26T05:21:16;9.65;;;2.72;;
5987;SDS011;3021;51.000;6.980;2023-02-26T05:23:42;7.97;;;2.90;;
5987;SDS011;3021;51.000;6.980;2023-02-26T05:26:07;10.98;;;3.42;;
5987;SDS011;3021;51.000;6.980;2023-02-26T05:28:33;7.07;;;2.13;;
5987;SDS011;3021;51.000;6.980;2023-02-26T05:30:58;9.30;;;3.78;;
5987;SDS011;3021;51.000;6.980;2023-02-26T05:33:24;8.18;;;3.00;;
5987;SDS011;3021;51.000;6.980;2023-02-26T05:35:50;8.50;;;3.03;;
5987;SDS011;3021;51.000;6.980;2023-02-26T05:38:16;9.20;;;2.45;;
5987;SDS011;3021;51.000;6.980;2023-02-26T05:40:41;7.72;;;2.60;;
5987;SDS011;3021;51.000;6.980;2023-02-26T05:43:06;11.57;;;2.67;;
5987;SDS011;3021;51.000;6.980;2023-02-26T05:45:32;5.90;;;1.88;;
5987;SDS011;3021;51.000;6.980;2023-02-26T05:47:58;6.88;;;2.10;;
5987;SDS011;3021;51.000;6.980;2023-02-26T05:50:23;6.93;;;1.80;;
5987;SDS011;3021;51.000;6.980;2023-02-26T05:52:48;3.50;;;1.83;;
5987;SDS011;3021;51.000;6.980;2023-02-26T05:55:14;8.23;;;2.00;;
5987;SDS011;3021;51.000;6.980;2023-02-26T05:57:39;6.63;;;1.80;;
5987;SDS011;3021;51.000;6.980;2023-02-26T06:00:05;5.07;;;1.88;;
5987;SDS011;3021;51.000;6.980;2023-02-26T06:02:32;5.55;;;1.70;;
5987;SDS011;3021;51.000;6.980;2023-02-26T06:04:57;7.90;;;2.10;;
5987;SDS011;3021;51.000;6.980;2023-02-26T06:07:22;7.28;;;2.22;;
5987;SDS011;3021;51.000;6.980;2023-02-26T06:09:48;3.90;;;2.05;;
5987;SDS011;3021;51.000;6.980;2023-02-26T06:12:13;9.77;;;2.70;;
5987;SDS011;3021;51.000;6.980;2023-02-26T06:14:39;4.60;;;2.53;;
5987;SDS011;3021;51.000;6.980;2023-02-26T06:17:04;4.95;;;2.38;;
5987;SDS011;3021;51.000;6.980;2023-02-26T06:19:30;10.20;;;2.58;;
5987;SDS011;3021;51.000;6.980;2023-02-26T06:21:56;7.75;;;3.30;;
5987;SDS011;3021;51.000;6.980;2023-02-26T06:24:21;7.43;;;2.55;;
5987;SDS011;3021;51.000;6.980;2023-02-26T06:26:47;8.40;;;2.45;;
5987;SDS011;3021;51.000;6.980;2023-02-26T06:29:12;8.20;;;2.47;;
5987;SDS011;3021;51.000;6.980;2023-02-26T06:31:38;7.60;;;2.30;;
5987;SDS011;3021;51.000;6.980;2023-02-26T06:34:03;6.88;;;2.35;;
5987;SDS011;3021;51.000;6.980;2023-02-26T06:36:29;6.43;;;2.10;;
5987;SDS011;3021;51.000;6.980;2023-02-26T06:38:54;6.40;;;2.53;;
5987;SDS011;3021;51.000;6.980;2023-02-26T06:41:19;6.13;;;3.00;;
5987;SDS011;3021;51.000;6.980;2023-02-26T06:43:45;2.88;;;2.13;;
5987;SDS011;3021;51.000;6.980;2023-02-26T06:46:10;9.50;;;3.00;;
5987;SDS011;3021;51.000;6.980;2023-02-26T06:48:35;6.57;;;2.28;;
5987;SDS011;3021;51.000;6.980;2023-02-26T06:51:01;8.75;;;2.40;;
5987;SDS011;3021;51.000;6.980;2023-02-26T06:53:26;5.32;;;2.13;;
5987;SDS011;3021;51.000;6.980;2023-02-26T06:55:52;11.68;;;2.53;;
5987;SDS011;3021;51.000;6.980;2023-02-26T06:58:18;3.67;;;2.47;;
5987;SDS011;3021;51.000;6.980;2023-02-26T07:00:44;5.63;;;2.55;;
5987;SDS011;3021;51.000;6.980;2023-02-26T07:03:11;7.93;;;2.78;;
5987;SDS011;3021;51.000;6.980;2023-02-26T07:05:38;11.38;;;2.30;;
5987;SDS011;3021;51.000;6.980;2023-02-26T07:08:04;4.45;;;2.05;;
5987;SDS011;3021;51.000;6.980;2023-02-26T07:10:33;6.70;;;2.30;;
5987;SDS011;3021;51.000;6.980;2023-02-26T07:13:00;7.72;;;2.60;;
5987;SDS011;3021;51.000;6.980;2023-02-26T07:15:26;4.15;;;2.55;;
5987;SDS011;3021;51.000;6.980;2023-02-26T07:17:51;11.68;;;2.42;;
5987;SDS011;3021;51.000;6.980;2023-02-26T07:20:17;4.68;;;2.50;;
5987;SDS011;3021;51.000;6.980;2023-02-26T07:22:42;6.28;;;2.50;;
5987;SDS011;3021;51.000;6.980;2023-02-26T07:25:09;8.35;;;2.55;;
5987;SDS011;3021;51.000;6.980;2023-02-26T07:27:36;4.72;;;2.40;;
5987;SDS011;3021;51.000;6.980;2023-02-26T07:30:01;7.32;;;2.50;;
5987;SDS011;3021;51.000;6.980;2023-02-26T07:32:29;5.30;;;2.97;;
5987;SDS011;3021;51.000;6.980;2023-02-26T07:34:54;9.85;;;2.55;;
5987;SDS011;3021;51.000;6.980;2023-02-26T07:37:19;5.95;;;2.90;;
5987;SDS011;3021;51.000;6.980;2023-02-26T07:39:45;5.32;;;2.53;;
5987;SDS011;3021;51.000;6.980;2023-02-26T07:42:10;4.05;;;2.72;;
5987;SDS011;3021;51.000;6.980;2023-02-26T07:44:36;8.55;;;2.90;;
5987;SDS011;3021;51.000;6.980;2023-02-26T07:47:01;7.50;;;2.83;;
5987;SDS011;3021;51.000;6.980;2023-02-26T07:49:27;8.52;;;2.90;;
5987;SDS011;3021;51.000;6.980;2023-02-26T07:51:52;5.90;;;3.28;;
5987;SDS011;3021;51.000;6.980;2023-02-26T07:54:18;9.10;;;3.35;;
5987;SDS011;3021;51.000;6.980;2023-02-26T07:56:43;5.35;;;2.42;;
5987;SDS011;3021;51.000;6.980;2023-02-26T07:59:09;4.97;;;2.40;;
5987;SDS011;3021;51.000;6.980;2023-02-26T08:01:34;3.50;;;2.10;;
5987;SDS011;3021;51.000;6.980;2023-02-26T08:04:00;7.15;;;2.80;;
5987;SDS011;3021;51.000;6.980;2023-02-26T08:06:26;3.88;;;2.22;;
5987;SDS011;3021;51.000;6.980;2023-02-26T08:08:52;4.63;;;2.17;;
5987;SDS011;3021;51.000;6.980;2023-02-26T08:11:17;3.63;;;1.92;;
5987;SDS011;3021;51.000;6.980;2023-02-26T08:13:43;4.82;;;2.45;;
5987;SDS011;3021;51.000;6.980;2023-02-26T08:16:08;7.18;;;2.88;;
5987;SDS011;3021;51.000;6.980;2023-02-26T08:18:33;6.95;;;2.08;;
5987;SDS011;3021;51.000;6.980;2023-02-26T08:20:59;4.35;;;1.98;;
5987;SDS011;3021;51.000;6.980;2023-02-26T08:23:24;6.82;;;1.90;;
5987;SDS011;3021;51.000;6.980;2023-02-26T08:25:50;5.03;;;2.22;;
5987;SDS011;3021;51.000;6.980;2023-02-26T08:28:27;3.78;;;1.88;;
5987;SDS011;3021;51.000;6.980;2023-02-26T08:30:52;5.22;;;2.17;;
5987;SDS011;3021;51.000;6.980;2023-02-26T08:33:18;4.07;;;2.00;;
5987;SDS011;3021;51.000;6.980;2023-02-26T08:35:44;4.68;;;2.00;;
5987;SDS011;3021;51.000;6.980;2023-02-26T08:38:09;4.97;;;2.25;;
5987;SDS011;3021;51.000;6.980;2023-02-26T08:40:34;11.85;;;2.63;;
5987;SDS011;3021;51.000;6.980;2023-02-26T08:43:00;8.07;;;2.38;;
5987;SDS011;3021;51.000;6.980;2023-02-26T08:45:27;7.03;;;2.08;;
5987;SDS011;3021;51.000;6.980;2023-02-26T08:47:52;5.47;;;2.20;;
5987;SDS011;3021;51.000;6.980;2023-02-26T08:50:19;3.92;;;2.10;;
5987;SDS011;3021;51.000;6.980;2023-02-26T08:52:45;6.07;;;2.13;;
5987;SDS011;3021;51.000;6.980;2023-02-26T08:55:10;4.20;;;2.08;;
5987;SDS011;3021;51.000;6.980;2023-02-26T08:57:35;4.35;;;2.10;;
5987;SDS011;3021;51.000;6.980;2023-02-26T09:00:01;5.00;;;1.92;;
5987;SDS011;3021;51.000;6.980;2023-02-26T09:02:28;3.90;;;1.98;;
5987;SDS011;3021;51.000;6.980;2023-02-26T09:04:54;4.38;;;1.60;;
5987;SDS011;3021;51.000;6.980;2023-02-26T09:07:19;5.82;;;2.33;;
5987;SDS011;3021;51.000;6.980;2023-02-26T09:09:44;4.03;;;1.88;;
5987;SDS011;3021;51.000;6.980;2023-02-26T09:12:10;4.13;;;1.67;;
5987;SDS011;3021;51.000;6.980;2023-02-26T09:14:35;5.22;;;1.83;;
5987;SDS011;3021;51.000;6.980;2023-02-26T09:17:00;6.45;;;1.70;;
5987;SDS011;3021;51.000;6.980;2023-02-26T09:19:26;4.15;;;1.90;;
5987;SDS011;3021;51.000;6.980;2023-02-26T09:21:51;3.15;;;1.38;;
5987;SDS011;3021;51.000;6.980;2023-02-26T09:24:16;3.80;;;1.63;;
5987;SDS011;3021;51.000;6.980;2023-02-26T09:26:41;3.80;;;1.45;;
5987;SDS011;3021;51.000;6.980;2023-02-26T09:29:07;5.53;;;2.00;;
5987;SDS011;3021;51.000;6.980;2023-02-26T09:31:32;4.82;;;1.42;;
5987;SDS011;3021;51.000;6.980;2023-02-26T09:33:58;4.00;;;1.30;;
5987;SDS011;3021;51.000;6.980;2023-02-26T09:36:23;3.15;;;1.30;;
5987;SDS011;3021;51.000;6.980;2023-02-26T09:38:48;3.03;;;1.55;;
5987;SDS011;3021;51.000;6.980;2023-02-26T09:57:57;2.78;;;1.48;;
5987;SDS011;3021;51.000;6.980;2023-02-26T10:00:30;2.17;;;1.50;;
5987;SDS011;3021;51.000;6.980;2023-02-26T10:03:19;3.17;;;1.00;;
5987;SDS011;3021;51.000;6.980;2023-02-26T10:09:05;3.05;;;1.20;;
5987;SDS011;3021;51.000;6.980;2023-02-26T10:11:52;2.85;;;1.20;;
5987;SDS011;3021;51.000;6.980;2023-02-26T10:17:18;2.80;;;1.30;;
5987;SDS011;3021;51.000;6.980;2023-02-26T10:20:03;5.13;;;1.20;;
5987;SDS011;3021;51.000;6.980;2023-02-26T10:22:36;6.70;;;1.13;;
5987;SDS011;3021;51.000;6.980;2023-02-26T10:25:18;2.47;;;1.08;;
5987;SDS011;3021;51.000;6.980;2023-02-26T10:30:40;1.88;;;1.10;;
5987;SDS011;3021;51.000;6.980;2023-02-26T10:33:26;2.45;;;1.13;;
5987;SDS011;3021;51.000;6.980;2023-02-26T10:36:23;3.83;;;1.20;;
5987;SDS011;3021;51.000;6.980;2023-02-26T10:38:53;2.25;;;0.98;;
5987;SDS011;3021;51.000;6.980;2023-02-26T10:41:24;1.67;;;1.10;;
5987;SDS011;3021;51.000;6.980;2023-02-26T10:44:00;1.83;;;1.25;;
5987;SDS011;3021;51.000;6.980;2023-02-26T10:51:42;1.63;;;0.80;;
5987;SDS011;3021;51.000;6.980;2023-02-26T10:54:14;2.80;;;0.93;;
5987;SDS011;3021;51.000;6.980;2023-02-26T10:56:45;3.28;;;0.98;;
5987;SDS011;3021;51.000;6.980;2023-02-26T10:59:10;3.08;;;1.10;;
5987;SDS011;3021;51.000;6.980;2023-02-26T11:01:36;2.20;;;0.90;;
5987;SDS011;3021;51.000;6.980;2023-02-26T11:04:03;1.60;;;0.90;;
5987;SDS011;3021;51.000;6.980;2023-02-26T11:06:33;3.30;;;1.05;;
5987;SDS011;3021;51.000;6.980;2023-02-26T11:09:02;5.20;;;1.00;;
5987;SDS011;3021;51.000;6.980;2023-02-26T11:12:03;2.63;;;0.80;;
5987;SDS011;3021;51.000;6.980;2023-02-26T11:14:30;2.22;;;0.77;;
5987;SDS011;3021;51.000;6.980;2023-02-26T11:16:57;3.03;;;1.10;;
5987;SDS011;3021;51.000;6.980;2023-02-26T11:19:30;3.90;;;1.40;;
5987;SDS011;3021;51.000;6.980;2023-02-26T11:21:59;3.95;;;1.20;;
5987;SDS011;3021;51.000;6.980;2023-02-26T11:24:29;4.45;;;1.02;;
5987;SDS011;3021;51.000;6.980;2023-02-26T11:26:59;3.28;;;1.17;;
5987;SDS011;3021;51.000;6.980;2023-02-26T11:29:31;3.05;;;1.02;;
5987;SDS011;3021;51.000;6.980;2023-02-26T11:32:02;1.63;;;0.82;;
5987;SDS011;3021;51.000;6.980;2023-02-26T11:34:28;4.38;;;1.17;;
5987;SDS011;3021;51.000;6.980;2023-02-26T11:36:54;2.95;;;1.00;;
5987;SDS011;3021;51.000;6.980;2023-02-26T11:39:29;2.03;;;1.10;;
5987;SDS011;3021;51.000;6.980;2023-02-26T11:41:59;2.92;;;1.10;;
5987;SDS011;3021;51.000;6.980;2023-02-26T11:47:01;1.48;;;0.88;;
5987;SDS011;3021;51.000;6.980;2023-02-26T11:49:30;1.55;;;0.95;;
5987;SDS011;3021;51.000;6.980;2023-02-26T11:52:01;1.52;;;0.93;;
5987;SDS011;3021;51.000;6.980;2023-02-26T11:54:33;2.40;;;0.90;;
5987;SDS011;3021;51.000;6.980;2023-02-26T11:57:04;1.55;;;0.90;;
5987;SDS011;3021;51.000;6.980;2023-02-26T11:59:32;4.80;;;1.10;;
5987;SDS011;3021;51.000;6.980;2023-02-26T12:02:04;2.03;;;0.90;;
5987;SDS011;3021;51.000;6.980;2023-02-26T12:04:37;3.70;;;1.00;;
5987;SDS011;3021;51.000;6.980;2023-02-26T12:07:14;2.63;;;1.20;;
5987;SDS011;3021;51.000;6.980;2023-02-26T12:09:40;4.45;;;1.10;;
5987;SDS011;3021;51.000;6.980;2023-02-26T12:37:03;1.67;;;1.10;;
5987;SDS011;3021;51.000;6.980;2023-02-26T12:48:05;3.47;;;1.02;;
5987;SDS011;3021;51.000;6.980;2023-02-26T12:58:34;2.45;;;1.08;;
5987;SDS011;3021;51.000;6.980;2023-02-26T13:09:21;4.07;;;1.15;;
5987;SDS011;3021;51.000;6.980;2023-02-26T13:22:43;2.47;;;1.10;;
5987;SDS011;3021;51.000;6.980;2023-02-26T13:25:17;4.65;;;1.00;;
5987;SDS011;3021;51.000;6.980;2023-02-26T13:27:44;3.42;;;1.20;;
5987;SDS011;3021;51.000;6.980;2023-02-26T13:32:36;3.78;;;1.30;;
5987;SDS011;3021;51.000;6.980;2023-02-26T13:35:11;2.50;;;1.10;;
5987;SDS011;3021;51.000;6.980;2023-02-26T13:38:04;1.88;;;0.93;;
5987;SDS011;3021;51.000;6.980;2023-02-26T13:51:47;2.40;;;1.00;;
5987;SDS011;3021;51.000;6.980;2023-02-26T14:05:00;2.22;;;0.90;;
5987;SDS011;3021;51.000;6.980;2023-02-26T14:07:53;2.22;;;0.90;;
5987;SDS011;3021;51.000;6.980;2023-02-26T14:10:43;1.95;;;0.95;;
5987;SDS011;3021;51.000;6.980;2023-02-26T14:16:12;2.53;;;1.15;;
5987;SDS011;3021;51.000;6.980;2023-02-26T14:23:55;1.85;;;1.10;;
5987;SDS011;3021;51.000;6.980;2023-02-26T14:26:23;3.72;;;1.48;;
5987;SDS011;3021;51.000;6.980;2023-02-26T14:34:31;3.28;;;1.10;;
5987;SDS011;3021;51.000;6.980;2023-02-26T14:37:02;3.30;;;1.05;;
5987;SDS011;3021;51.000;6.980;2023-02-26T14:40:05;1.85;;;0.80;;
5987;SDS011;3021;51.000;6.980;2023-02-26T14:42:27;2.17;;;1.13;;
5987;SDS011;3021;51.000;6.980;2023-02-26T14:47:46;2.45;;;0.90;;
5987;SDS011;3021;51.000;6.980;2023-02-26T14:50:14;1.48;;;0.85;;
5987;SDS011;3021;51.000;6.980;2023-02-26T14:52:54;4.15;;;1.13;;
5987;SDS011;3021;51.000;6.980;2023-02-26T14:55:44;3.83;;;0.98;;
5987;SDS011;3021;51.000;6.980;2023-02-26T15:04:09;2.50;;;1.27;;
5987;SDS011;3021;51.000;6.980;2023-02-26T15:09:47;2.50;;;1.00;;
5987;SDS011;3021;51.000;6.980;2023-02-26T15:12:43;2.97;;;0.90;;
5987;SDS011;3021;51.000;6.980;2023-02-26T15:15:15;2.92;;;1.02;;
5987;SDS011;3021;51.000;6.980;2023-02-26T15:17:58;3.05;;;0.93;;
5987;SDS011;3021;51.000;6.980;2023-02-26T15:24:06;2.40;;;1.10;;
5987;SDS011;3021;51.000;6.980;2023-02-26T15:26:36;2.80;;;1.17;;
5987;SDS011;3021;51.000;6.980;2023-02-26T15:29:08;1.55;;;0.77;;
5987;SDS011;3021;51.000;6.980;2023-02-26T15:31:42;3.22;;;1.13;;
5987;SDS011;3021;51.000;6.980;2023-02-26T15:34:12;3.08;;;1.13;;
5987;SDS011;3021;51.000;6.980;2023-02-26T15:36:47;3.22;;;0.82;;
5987;SDS011;3021;51.000;6.980;2023-02-26T15:39:15;3.75;;;1.10;;
5987;SDS011;3021;51.000;6.980;2023-02-26T15:41:42;2.03;;;0.98;;
5987;SDS011;3021;51.000;6.980;2023-02-26T15:44:15;8.07;;;1.27;;
5987;SDS011;3021;51.000;6.980;2023-02-26T15:46:44;2.42;;;0.90;;
5987;SDS011;3021;51.000;6.980;2023-02-26T15:49:15;1.48;;;1.02;;
5987;SDS011;3021;51.000;6.980;2023-02-26T15:51:49;2.97;;;1.08;;
5987;SDS011;3021;51.000;6.980;2023-02-26T15:54:18;2.47;;;0.88;;
5987;SDS011;3021;51.000;6.980;2023-02-26T15:56:46;2.78;;;1.33;;
5987;SDS011;3021;51.000;6.980;2023-02-26T15:59:15;2.47;;;1.10;;
5987;SDS011;3021;51.000;6.980;2023-02-26T16:01:47;1.57;;;0.70;;
5987;SDS011;3021;51.000;6.980;2023-02-26T16:04:16;3.45;;;0.95;;
5987;SDS011;3021;51.000;6.980;2023-02-26T16:06:43;1.77;;;1.02;;
5987;SDS011;3021;51.000;6.980;2023-02-26T16:09:25;2.03;;;0.90;;
5987;SDS011;3021;51.000;6.980;2023-02-26T16:11:54;2.35;;;1.23;;
5987;SDS011;3021;51.000;6.980;2023-02-26T16:14:25;1.67;;;0.95;;
5987;SDS011;3021;51.000;6.980;2023-02-26T16:16:54;4.88;;;0.95;;
5987;SDS011;3021;51.000;6.980;2023-02-26T16:19:25;2.45;;;1.00;;
5987;SDS011;3021;51.000;6.980;2023-02-26T16:24:53;1.50;;;1.08;;
5987;SDS011;3021;51.000;6.980;2023-02-26T16:27:24;1.27;;;1.15;;
5987;SDS011;3021;51.000;6.980;2023-02-26T16:29:52;1.23;;;0.70;;
5987;SDS011;3021;51.000;6.980;2023-02-26T16:32:20;1.65;;;0.85;;
5987;SDS011;3021;51.000;6.980;2023-02-26T16:39:54;2.03;;;1.15;;
5987;SDS011;3021;51.000;6.980;2023-02-26T16:45:07;3.20;;;1.00;;
5987;SDS011;3021;51.000;6.980;2023-02-26T16:47:38;7.28;;;1.25;;
5987;SDS011;3021;51.000;6.980;2023-02-26T16:50:04;2.38;;;1.10;;
5987;SDS011;3021;51.000;6.980;2023-02-26T16:52:40;3.30;;;1.02;;
5987;SDS011;3021;51.000;6.980;2023-02-26T16:55:06;2.42;;;1.48;;
5987;SDS011;3021;51.000;6.980;2023-02-26T16:57:42;4.22;;;1.30;;
5987;SDS011;3021;51.000;6.980;2023-02-26T17:00:14;1.58;;;1.10;;
5987;SDS011;3021;51.000;6.980;2023-02-26T17:05:15;1.85;;;1.00;;
5987;SDS011;3021;51.000;6.980;2023-02-26T17:07:46;2.97;;;1.25;;
5987;SDS011;3021;51.000;6.980;2023-02-26T17:10:46;2.33;;;1.30;;
5987;SDS011;3021;51.000;6.980;2023-02-26T17:15:45;4.78;;;1.40;;
5987;SDS011;3021;51.000;6.980;2023-02-26T17:18:11;3.42;;;1.40;;
5987;SDS011;3021;51.000;6.980;2023-02-26T17:20:37;5.25;;;1.30;;
5987;SDS011;3021;51.000;6.980;2023-02-26T17:23:04;2.00;;;1.10;;
5987;SDS011;3021;51.000;6.980;2023-02-26T17:25:34;3.70;;;1.20;;
5987;SDS011;3021;51.000;6.980;2023-02-26T17:28:03;3.70;;;1.80;;
5987;SDS011;3021;51.000;6.980;2023-02-26T17:30:28;4.53;;;1.20;;
5987;SDS011;3021;51.000;6.980;2023-02-26T17:32:56;4.80;;;1.92;;
5987;SDS011;3021;51.000;6.980;2023-02-26T17:35:22;4.80;;;1.60;;
5987;SDS011;3021;51.000;6.980;2023-02-26T17:37:48;2.35;;;1.23;;
5987;SDS011;3021;51.000;6.980;2023-02-26T17:40:22;2.03;;;1.40;;
5987;SDS011;3021;51.000;6.980;2023-02-26T17:43:00;1.88;;;1.13;;
5987;SDS011;3021;51.000;6.980;2023-02-26T17:45:27;4.45;;;1.30;;
5987;SDS011;3021;51.000;6.980;2023-02-26T17:47:53;4.18;;;1.60;;
5987;SDS011;3021;51.000;6.980;2023-02-26T17:50:20;6.78;;;1.52;;
5987;SDS011;3021;51.000;6.980;2023-02-26T17:52:53;5.50;;;1.52;;
5987;SDS011;3021;51.000;6.980;2023-02-26T17:55:19;2.20;;;1.60;;
5987;SDS011;3021;51.000;6.980;2023-02-26T17:57:44;1.85;;;1.48;;
5987;SDS011;3021;51.000;6.980;2023-02-26T18:00:10;6.80;;;1.77;;
5987;SDS011;3021;51.000;6.980;2023-02-26T18:02:39;4.13;;;1.92;;
5987;SDS011;3021;51.000;6.980;2023-02-26T18:05:04;2.92;;;1.38;;
5987;SDS011;3021;51.000;6.980;2023-02-26T18:07:30;3.90;;;1.60;;
5987;SDS011;3021;51.000;6.980;2023-02-26T18:09:56;4.95;;;1.98;;
5987;SDS011;3021;51.000;6.980;2023-02-26T18:12:21;2.65;;;1.48;;
5987;SDS011;3021;51.000;6.980;2023-02-26T18:14:47;3.47;;;1.75;;
5987;SDS011;3021;51.000;6.980;2023-02-26T18:17:13;8.10;;;2.00;;
5987;SDS011;3021;51.000;6.980;2023-02-26T18:19:41;5.18;;;2.17;;
5987;SDS011;3021;51.000;6.980;2023-02-26T18:22:14;3.28;;;1.70;;
5987;SDS011;3021;51.000;6.980;2023-02-26T18:24:41;3.05;;;1.60;;
5987;SDS011;3021;51.000;6.980;2023-02-26T18:27:11;3.45;;;1.98;;
5987;SDS011;3021;51.000;6.980;2023-02-26T18:29:38;5.65;;;2.05;;
5987;SDS011;3021;51.000;6.980;2023-02-26T18:32:04;7.07;;;1.92;;
5987;SDS011;3021;51.000;6.980;2023-02-26T18:34:29;4.90;;;1.70;;
5987;SDS011;3021;51.000;6.980;2023-02-26T18:36:55;2.75;;;2.00;;
5987;SDS011;3021;51.000;6.980;2023-02-26T18:39:20;2.50;;;1.67;;
5987;SDS011;3021;51.000;6.980;2023-02-26T18:41:47;5.07;;;1.88;;
5987;SDS011;3021;51.000;6.980;2023-02-26T18:44:13;2.83;;;1.75;;
5987;SDS011;3021;51.000;6.980;2023-02-26T18:46:38;4.70;;;2.33;;
5987;SDS011;3021;51.000;6.980;2023-02-26T18:49:06;6.20;;;2.10;;
5987;SDS011;3021;51.000;6.980;2023-02-26T18:51:39;2.67;;;1.77;;
5987;SDS011;3021;51.000;6.980;2023-02-26T18:54:04;3.58;;;1.77;;
5987;SDS011;3021;51.000;6.980;2023-02-26T18:56:29;6.57;;;2.33;;
5987;SDS011;3021;51.000;6.980;2023-02-26T18:58:55;6.32;;;2.00;;
5987;SDS011;3021;51.000;6.980;2023-02-26T19:01:20;5.55;;;2.20;;
5987;SDS011;3021;51.000;6.980;2023-02-26T19:03:45;2.67;;;1.80;;
5987;SDS011;3021;51.000;6.980;2023-02-26T19:06:11;3.80;;;1.85;;
5987;SDS011;3021;51.000;6.980;2023-02-26T19:08:36;5.60;;;2.28;;
5987;SDS011;3021;51.000;6.980;2023-02-26T19:11:01;3.47;;;1.73;;
5987;SDS011;3021;51.000;6.980;2023-02-26T19:13:27;6.50;;;2.05;;
5987;SDS011;3021;51.000;6.980;2023-02-26T19:15:53;6.07;;;2.30;;